Arendahl, Minnesota
Current Conditions -  °F | °C
As of 9:15 PM on Monday 20 Oct 2014 (Local Time) from KFKA Reporting Station
Clear Clear  
Wind Chill:   Ceiling: Unl
Heat Index:   Visibility: 10mi
Dew Point:   Wind: 6mph
Humidity: 76%   Direction: 40°NE
Pressure: 30.05"   Gusts: NA
Location:  43.7298°N, 91.8267°W
Report Text: KFKA 210215Z AUTO 04005KT 10SM CLR 09/05 A3005 RMK AO2 T00860045
Loading
Personal Weather Stations






























Interactive Weather Map
Tropical Storm Tracking
New forecast layout! Learn more

10-Day Weather Forecast

Advertisements
Track Severe Weather on mobile